sensor_id;sensor_type;location;lat;lon;timestamp;pressure;altitude;pressure_sealevel;temperature;humidity
56821;BME280;42702;50.178;20.992;2022-12-18T00:00:05;100741.55;;;-4.47;80.90
56821;BME280;42702;50.178;20.992;2022-12-18T00:03:00;100743.59;;;-4.45;80.73
56821;BME280;42702;50.178;20.992;2022-12-18T00:05:28;100750.11;;;-4.37;80.58
56821;BME280;42702;50.178;20.992;2022-12-18T00:07:56;100753.14;;;-4.41;80.28
56821;BME280;42702;50.178;20.992;2022-12-18T00:10:24;100760.33;;;-4.46;80.41
56821;BME280;42702;50.178;20.992;2022-12-18T00:12:52;100763.06;;;-4.48;80.83
56821;BME280;42702;50.178;20.992;2022-12-18T00:15:20;100768.73;;;-4.50;80.85
56821;BME280;42702;50.178;20.992;2022-12-18T00:17:49;100774.67;;;-4.50;80.86
56821;BME280;42702;50.178;20.992;2022-12-18T00:20:17;100770.58;;;-4.50;81.05
56821;BME280;42702;50.178;20.992;2022-12-18T00:22:49;100770.80;;;-4.50;81.06
56821;BME280;42702;50.178;20.992;2022-12-18T00:25:17;100770.44;;;-4.52;80.52
56821;BME280;42702;50.178;20.992;2022-12-18T00:27:45;100767.85;;;-4.52;80.40
56821;BME280;42702;50.178;20.992;2022-12-18T00:30:14;100768.56;;;-4.56;80.66
56821;BME280;42702;50.178;20.992;2022-12-18T00:32:42;100770.55;;;-4.64;80.74
56821;BME280;42702;50.178;20.992;2022-12-18T00:35:10;100772.57;;;-4.68;81.06
56821;BME280;42702;50.178;20.992;2022-12-18T00:37:39;100778.34;;;-4.68;81.48
56821;BME280;42702;50.178;20.992;2022-12-18T00:40:07;100784.06;;;-4.69;81.15
56821;BME280;42702;50.178;20.992;2022-12-18T00:42:37;100784.11;;;-4.70;81.16
56821;BME280;42702;50.178;20.992;2022-12-18T00:45:29;100793.39;;;-4.69;81.23
56821;BME280;42702;50.178;20.992;2022-12-18T00:47:57;100797.16;;;-4.67;81.45
56821;BME280;42702;50.178;20.992;2022-12-18T00:50:26;100804.23;;;-4.64;81.32
56821;BME280;42702;50.178;20.992;2022-12-18T00:52:54;100807.20;;;-4.60;81.18
56821;BME280;42702;50.178;20.992;2022-12-18T00:55:22;100808.17;;;-4.50;80.51
56821;BME280;42702;50.178;20.992;2022-12-18T00:57:51;100810.16;;;-4.47;80.31
56821;BME280;42702;50.178;20.992;2022-12-18T01:00:20;100822.41;;;-4.49;80.29
56821;BME280;42702;50.178;20.992;2022-12-18T01:02:49;100828.22;;;-4.49;80.52
56821;BME280;42702;50.178;20.992;2022-12-18T01:05:18;100830.77;;;-4.49;80.18
56821;BME280;42702;50.178;20.992;2022-12-18T01:07:46;100833.33;;;-4.48;80.14
56821;BME280;42702;50.178;20.992;2022-12-18T01:10:14;100834.98;;;-4.51;80.05
56821;BME280;42702;50.178;20.992;2022-12-18T01:12:42;100834.50;;;-4.55;79.92
56821;BME280;42702;50.178;20.992;2022-12-18T01:15:12;100837.96;;;-4.59;79.99
56821;BME280;42702;50.178;20.992;2022-12-18T01:17:41;100841.98;;;-4.62;79.83
56821;BME280;42702;50.178;20.992;2022-12-18T01:20:12;100847.09;;;-4.66;79.80
56821;BME280;42702;50.178;20.992;2022-12-18T01:22:40;100850.20;;;-4.67;79.82
56821;BME280;42702;50.178;20.992;2022-12-18T01:25:08;100854.66;;;-4.67;79.49
56821;BME280;42702;50.178;20.992;2022-12-18T01:27:36;100859.77;;;-4.63;79.11
56821;BME280;42702;50.178;20.992;2022-12-18T01:30:05;100861.70;;;-4.62;79.22
56821;BME280;42702;50.178;20.992;2022-12-18T01:32:34;100860.20;;;-4.66;79.38
56821;BME280;42702;50.178;20.992;2022-12-18T01:35:03;100866.44;;;-4.68;79.10
56821;BME280;42702;50.178;20.992;2022-12-18T01:37:31;100873.76;;;-4.73;79.00
56821;BME280;42702;50.178;20.992;2022-12-18T01:39:59;100879.72;;;-4.77;78.62
56821;BME280;42702;50.178;20.992;2022-12-18T01:42:27;100882.34;;;-4.81;78.83
56821;BME280;42702;50.178;20.992;2022-12-18T01:50:09;100888.25;;;-4.91;79.08
56821;BME280;42702;50.178;20.992;2022-12-18T01:52:41;100888.33;;;-4.92;79.33
56821;BME280;42702;50.178;20.992;2022-12-18T01:55:11;100892.20;;;-4.91;79.23
56821;BME280;42702;50.178;20.992;2022-12-18T01:57:40;100895.00;;;-4.92;79.15
56821;BME280;42702;50.178;20.992;2022-12-18T02:00:14;100895.20;;;-4.94;79.21
56821;BME280;42702;50.178;20.992;2022-12-18T02:02:44;100898.13;;;-4.93;79.12
56821;BME280;42702;50.178;20.992;2022-12-18T02:05:20;100896.82;;;-4.84;78.82
56821;BME280;42702;50.178;20.992;2022-12-18T02:10:57;100911.61;;;-4.80;79.16
56821;BME280;42702;50.178;20.992;2022-12-18T02:16:21;100911.84;;;-4.73;78.99
56821;BME280;42702;50.178;20.992;2022-12-18T02:18:57;100911.75;;;-4.74;78.84
56821;BME280;42702;50.178;20.992;2022-12-18T02:27:16;100916.63;;;-4.81;78.77
56821;BME280;42702;50.178;20.992;2022-12-18T02:29:50;100918.09;;;-4.82;79.12
56821;BME280;42702;50.178;20.992;2022-12-18T02:32:28;100921.89;;;-4.81;79.10
56821;BME280;42702;50.178;20.992;2022-12-18T02:34:59;100922.80;;;-4.83;79.03
56821;BME280;42702;50.178;20.992;2022-12-18T02:37:30;100924.20;;;-4.84;79.13
56821;BME280;42702;50.178;20.992;2022-12-18T02:40:03;100930.04;;;-4.77;78.79
56821;BME280;42702;50.178;20.992;2022-12-18T02:42:33;100933.35;;;-4.72;78.73
56821;BME280;42702;50.178;20.992;2022-12-18T02:45:01;100933.73;;;-4.71;78.92
56821;BME280;42702;50.178;20.992;2022-12-18T02:47:33;100928.63;;;-4.69;79.19
56821;BME280;42702;50.178;20.992;2022-12-18T02:53:11;100924.48;;;-4.64;79.01
56821;BME280;42702;50.178;20.992;2022-12-18T02:56:12;100923.81;;;-4.64;79.19
56821;BME280;42702;50.178;20.992;2022-12-18T02:59:02;100925.52;;;-4.64;78.90
56821;BME280;42702;50.178;20.992;2022-12-18T03:01:51;100928.55;;;-4.64;78.78
56821;BME280;42702;50.178;20.992;2022-12-18T03:04:36;100933.58;;;-4.61;78.87
56821;BME280;42702;50.178;20.992;2022-12-18T03:07:13;100941.45;;;-4.54;78.57
56821;BME280;42702;50.178;20.992;2022-12-18T03:09:47;100945.73;;;-4.54;78.93
56821;BME280;42702;50.178;20.992;2022-12-18T03:12:18;100946.77;;;-4.55;78.67
56821;BME280;42702;50.178;20.992;2022-12-18T03:17:50;100956.63;;;-4.53;78.62
56821;BME280;42702;50.178;20.992;2022-12-18T03:20:21;100957.25;;;-4.56;78.57
56821;BME280;42702;50.178;20.992;2022-12-18T03:22:54;100967.21;;;-4.57;78.60
56821;BME280;42702;50.178;20.992;2022-12-18T03:25:25;100965.87;;;-4.61;78.04
56821;BME280;42702;50.178;20.992;2022-12-18T03:27:57;100963.48;;;-4.61;78.02
56821;BME280;42702;50.178;20.992;2022-12-18T03:30:28;100972.54;;;-4.52;78.00
56821;BME280;42702;50.178;20.992;2022-12-18T03:33:20;100973.53;;;-4.51;77.83
56821;BME280;42702;50.178;20.992;2022-12-18T03:35:54;100978.95;;;-4.53;77.61
56821;BME280;42702;50.178;20.992;2022-12-18T03:38:23;100980.27;;;-4.56;77.57
56821;BME280;42702;50.178;20.992;2022-12-18T03:40:58;100985.59;;;-4.57;77.99
56821;BME280;42702;50.178;20.992;2022-12-18T03:49:27;100994.98;;;-4.61;77.73
56821;BME280;42702;50.178;20.992;2022-12-18T03:52:22;100999.84;;;-4.64;77.97
56821;BME280;42702;50.178;20.992;2022-12-18T03:54:56;100995.66;;;-4.61;77.80
56821;BME280;42702;50.178;20.992;2022-12-18T03:57:28;101002.84;;;-4.54;77.52
56821;BME280;42702;50.178;20.992;2022-12-18T04:00:10;101007.21;;;-4.55;77.50
56821;BME280;42702;50.178;20.992;2022-12-18T04:02:54;101010.10;;;-4.57;77.66
56821;BME280;42702;50.178;20.992;2022-12-18T04:05:30;101012.83;;;-4.59;77.45
56821;BME280;42702;50.178;20.992;2022-12-18T04:08:01;101014.73;;;-4.59;77.76
56821;BME280;42702;50.178;20.992;2022-12-18T04:10:30;101016.80;;;-4.58;77.84
56821;BME280;42702;50.178;20.992;2022-12-18T04:13:02;101020.65;;;-4.57;77.74
56821;BME280;42702;50.178;20.992;2022-12-18T04:15:33;101018.98;;;-4.59;77.96
56821;BME280;42702;50.178;20.992;2022-12-18T04:18:03;101020.65;;;-4.59;78.02
56821;BME280;42702;50.178;20.992;2022-12-18T04:20:37;101018.51;;;-4.52;77.72
56821;BME280;42702;50.178;20.992;2022-12-18T04:23:05;101017.08;;;-4.47;77.53
56821;BME280;42702;50.178;20.992;2022-12-18T04:25:34;101017.53;;;-4.47;77.82
56821;BME280;42702;50.178;20.992;2022-12-18T04:28:08;101020.13;;;-4.47;77.87
56821;BME280;42702;50.178;20.992;2022-12-18T04:30:37;101026.83;;;-4.48;77.67
56821;BME280;42702;50.178;20.992;2022-12-18T04:33:10;101024.82;;;-4.50;77.75
56821;BME280;42702;50.178;20.992;2022-12-18T04:35:39;101029.08;;;-4.50;77.88
56821;BME280;42702;50.178;20.992;2022-12-18T04:38:08;101030.98;;;-4.51;77.83
56821;BME280;42702;50.178;20.992;2022-12-18T04:40:38;101037.02;;;-4.47;77.54
56821;BME280;42702;50.178;20.992;2022-12-18T04:43:14;101044.36;;;-4.42;77.56
56821;BME280;42702;50.178;20.992;2022-12-18T04:45:42;101045.44;;;-4.43;77.88
56821;BME280;42702;50.178;20.992;2022-12-18T04:48:10;101049.89;;;-4.41;78.02
56821;BME280;42702;50.178;20.992;2022-12-18T04:50:39;101052.27;;;-4.41;78.05
56821;BME280;42702;50.178;20.992;2022-12-18T04:53:07;101055.44;;;-4.37;78.06
56821;BME280;42702;50.178;20.992;2022-12-18T04:55:36;101062.36;;;-4.38;77.87
56821;BME280;42702;50.178;20.992;2022-12-18T04:58:05;101065.46;;;-4.40;77.94
56821;BME280;42702;50.178;20.992;2022-12-18T05:00:33;101069.41;;;-4.42;78.04
56821;BME280;42702;50.178;20.992;2022-12-18T05:03:01;101075.02;;;-4.40;77.93
56821;BME280;42702;50.178;20.992;2022-12-18T05:05:30;101072.18;;;-4.31;77.78
56821;BME280;42702;50.178;20.992;2022-12-18T05:07:59;101076.02;;;-4.27;77.85
56821;BME280;42702;50.178;20.992;2022-12-18T05:10:28;101075.93;;;-4.26;78.20
56821;BME280;42702;50.178;20.992;2022-12-18T05:13:04;101080.40;;;-4.26;78.00
56821;BME280;42702;50.178;20.992;2022-12-18T05:15:33;101085.78;;;-4.26;77.93
56821;BME280;42702;50.178;20.992;2022-12-18T05:18:02;101092.80;;;-4.26;78.12
56821;BME280;42702;50.178;20.992;2022-12-18T05:20:31;101092.55;;;-4.27;78.04
56821;BME280;42702;50.178;20.992;2022-12-18T05:22:59;101099.01;;;-4.25;78.36
56821;BME280;42702;50.178;20.992;2022-12-18T05:25:27;101099.95;;;-4.24;78.24
56821;BME280;42702;50.178;20.992;2022-12-18T05:27:56;101096.80;;;-4.25;78.08
56821;BME280;42702;50.178;20.992;2022-12-18T05:30:24;101098.23;;;-4.20;77.76
56821;BME280;42702;50.178;20.992;2022-12-18T05:32:53;101101.38;;;-4.17;77.66
56821;BME280;42702;50.178;20.992;2022-12-18T05:35:21;101106.80;;;-4.20;77.96
56821;BME280;42702;50.178;20.992;2022-12-18T05:37:49;101108.96;;;-4.18;78.12
56821;BME280;42702;50.178;20.992;2022-12-18T05:40:17;101114.07;;;-4.18;78.09
56821;BME280;42702;50.178;20.992;2022-12-18T05:42:46;101116.86;;;-4.19;77.97
56821;BME280;42702;50.178;20.992;2022-12-18T05:45:14;101112.16;;;-4.23;77.91
56821;BME280;42702;50.178;20.992;2022-12-18T05:47:42;101110.45;;;-4.27;77.99
56821;BME280;42702;50.178;20.992;2022-12-18T05:50:10;101106.02;;;-4.23;78.06
56821;BME280;42702;50.178;20.992;2022-12-18T05:52:38;101110.67;;;-4.18;77.97
56821;BME280;42702;50.178;20.992;2022-12-18T05:55:06;101115.30;;;-4.20;78.23
56821;BME280;42702;50.178;20.992;2022-12-18T05:57:34;101118.17;;;-4.16;78.46
56821;BME280;42702;50.178;20.992;2022-12-18T06:00:03;101118.15;;;-4.14;78.28
56821;BME280;42702;50.178;20.992;2022-12-18T06:02:38;101122.49;;;-4.15;78.24
56821;BME280;42702;50.178;20.992;2022-12-18T06:05:07;101125.77;;;-4.16;78.34
56821;BME280;42702;50.178;20.992;2022-12-18T06:07:35;101127.17;;;-4.16;78.39
56821;BME280;42702;50.178;20.992;2022-12-18T06:10:03;101130.67;;;-4.19;78.34
56821;BME280;42702;50.178;20.992;2022-12-18T06:12:32;101131.29;;;-4.13;78.03
56821;BME280;42702;50.178;20.992;2022-12-18T06:15:01;101138.30;;;-4.09;78.12
56821;BME280;42702;50.178;20.992;2022-12-18T06:17:32;101141.83;;;-4.12;78.36
56821;BME280;42702;50.178;20.992;2022-12-18T06:20:00;101142.29;;;-4.10;78.35
56821;BME280;42702;50.178;20.992;2022-12-18T06:22:31;101144.08;;;-4.09;78.63
56821;BME280;42702;50.178;20.992;2022-12-18T06:24:59;101148.56;;;-4.09;78.49
56821;BME280;42702;50.178;20.992;2022-12-18T06:27:28;101152.10;;;-4.09;78.57
56821;BME280;42702;50.178;20.992;2022-12-18T06:29:56;101161.88;;;-4.12;78.31
56821;BME280;42702;50.178;20.992;2022-12-18T06:32:24;101163.54;;;-4.13;78.50
56821;BME280;42702;50.178;20.992;2022-12-18T06:34:52;101166.09;;;-4.11;78.17
56821;BME280;42702;50.178;20.992;2022-12-18T06:37:22;101169.34;;;-4.06;77.82
56821;BME280;42702;50.178;20.992;2022-12-18T06:39:53;101168.70;;;-4.08;78.14
56821;BME280;42702;50.178;20.992;2022-12-18T06:42:22;101170.15;;;-4.11;78.03
56821;BME280;42702;50.178;20.992;2022-12-18T06:44:51;101176.80;;;-4.13;78.19
56821;BME280;42702;50.178;20.992;2022-12-18T06:47:19;101185.27;;;-4.16;78.36
56821;BME280;42702;50.178;20.992;2022-12-18T06:49:47;101192.63;;;-4.17;78.39
56821;BME280;42702;50.178;20.992;2022-12-18T06:52:15;101198.70;;;-4.18;78.20
56821;BME280;42702;50.178;20.992;2022-12-18T06:54:43;101202.69;;;-4.13;78.22
56821;BME280;42702;50.178;20.992;2022-12-18T06:57:11;101204.35;;;-4.09;78.53
56821;BME280;42702;50.178;20.992;2022-12-18T06:59:39;101203.45;;;-4.08;78.72
56821;BME280;42702;50.178;20.992;2022-12-18T07:02:11;101208.94;;;-4.06;78.59
56821;BME280;42702;50.178;20.992;2022-12-18T07:04:40;101211.86;;;-4.05;78.68
56821;BME280;42702;50.178;20.992;2022-12-18T07:07:08;101218.73;;;-4.06;78.46
56821;BME280;42702;50.178;20.992;2022-12-18T07:09:36;101224.56;;;-4.06;78.65
56821;BME280;42702;50.178;20.992;2022-12-18T07:12:04;101232.08;;;-4.06;78.50
56821;BME280;42702;50.178;20.992;2022-12-18T07:14:32;101230.20;;;-3.99;78.07
56821;BME280;42702;50.178;20.992;2022-12-18T07:17:00;101238.09;;;-3.96;78.39
56821;BME280;42702;50.178;20.992;2022-12-18T07:19:29;101236.50;;;-3.97;78.81
56821;BME280;42702;50.178;20.992;2022-12-18T07:21:59;101242.17;;;-3.95;78.72
56821;BME280;42702;50.178;20.992;2022-12-18T07:24:27;101242.83;;;-3.95;78.64
56821;BME280;42702;50.178;20.992;2022-12-18T07:26:56;101244.65;;;-3.94;78.63
56821;BME280;42702;50.178;20.992;2022-12-18T07:29:24;101252.20;;;-3.93;78.54
56821;BME280;42702;50.178;20.992;2022-12-18T07:31:52;101258.03;;;-3.95;78.60
56821;BME280;42702;50.178;20.992;2022-12-18T07:34:20;101260.27;;;-3.94;78.77
56821;BME280;42702;50.178;20.992;2022-12-18T07:36:48;101260.08;;;-3.95;78.80
56821;BME280;42702;50.178;20.992;2022-12-18T07:39:16;101262.30;;;-3.92;78.52
56821;BME280;42702;50.178;20.992;2022-12-18T07:41:44;101270.46;;;-3.83;78.49
56821;BME280;42702;50.178;20.992;2022-12-18T07:44:33;101273.23;;;-3.79;78.44
56821;BME280;42702;50.178;20.992;2022-12-18T07:47:01;101274.76;;;-3.80;78.44
56821;BME280;42702;50.178;20.992;2022-12-18T07:49:32;101275.60;;;-3.78;78.69
56821;BME280;42702;50.178;20.992;2022-12-18T07:52:00;101281.60;;;-3.75;78.55
56821;BME280;42702;50.178;20.992;2022-12-18T07:54:29;101282.65;;;-3.75;78.56
56821;BME280;42702;50.178;20.992;2022-12-18T07:56:57;101288.06;;;-3.76;78.53
56821;BME280;42702;50.178;20.992;2022-12-18T07:59:25;101288.90;;;-3.72;78.94
56821;BME280;42702;50.178;20.992;2022-12-18T08:01:54;101292.31;;;-3.70;78.70
56821;BME280;42702;50.178;20.992;2022-12-18T08:04:22;101295.89;;;-3.72;78.51
56821;BME280;42702;50.178;20.992;2022-12-18T08:06:50;101300.61;;;-3.72;78.46
56821;BME280;42702;50.178;20.992;2022-12-18T08:09:19;101302.98;;;-3.64;78.40
56821;BME280;42702;50.178;20.992;2022-12-18T08:11:47;101302.65;;;-3.55;78.50
56821;BME280;42702;50.178;20.992;2022-12-18T08:14:15;101302.95;;;-3.56;78.49
56821;BME280;42702;50.178;20.992;2022-12-18T08:16:43;101307.15;;;-3.55;78.52
56821;BME280;42702;50.178;20.992;2022-12-18T08:19:11;101310.46;;;-3.54;78.58
56821;BME280;42702;50.178;20.992;2022-12-18T08:21:39;101311.74;;;-3.53;78.62
56821;BME280;42702;50.178;20.992;2022-12-18T08:24:09;101316.39;;;-3.55;78.42
56821;BME280;42702;50.178;20.992;2022-12-18T08:26:37;101315.16;;;-3.55;78.71
56821;BME280;42702;50.178;20.992;2022-12-18T08:29:05;101314.50;;;-3.57;78.58
56821;BME280;42702;50.178;20.992;2022-12-18T08:31:33;101319.77;;;-3.57;78.64
56821;BME280;42702;50.178;20.992;2022-12-18T08:34:02;101322.27;;;-3.52;78.48
56821;BME280;42702;50.178;20.992;2022-12-18T08:36:30;101321.14;;;-3.45;78.37
56821;BME280;42702;50.178;20.992;2022-12-18T08:38:58;101330.62;;;-3.43;78.32
56821;BME280;42702;50.178;20.992;2022-12-18T08:41:27;101336.29;;;-3.45;78.25
56821;BME280;42702;50.178;20.992;2022-12-18T08:43:55;101337.44;;;-3.47;78.31
56821;BME280;42702;50.178;20.992;2022-12-18T08:46:43;101337.99;;;-3.49;78.53
56821;BME280;42702;50.178;20.992;2022-12-18T08:49:11;101335.33;;;-3.44;78.90
56821;BME280;42702;50.178;20.992;2022-12-18T08:51:40;101334.92;;;-3.37;78.99
56821;BME280;42702;50.178;20.992;2022-12-18T08:54:11;101337.59;;;-3.32;78.80
56821;BME280;42702;50.178;20.992;2022-12-18T08:56:39;101340.31;;;-3.27;78.65
56821;BME280;42702;50.178;20.992;2022-12-18T08:59:08;101336.33;;;-3.26;78.19
56821;BME280;42702;50.178;20.992;2022-12-18T09:01:46;101334.09;;;-3.19;77.80
56821;BME280;42702;50.178;20.992;2022-12-18T09:04:15;101335.39;;;-3.14;78.15
56821;BME280;42702;50.178;20.992;2022-12-18T09:06:43;101337.73;;;-3.09;78.24
56821;BME280;42702;50.178;20.992;2022-12-18T09:09:11;101337.66;;;-3.03;78.06
56821;BME280;42702;50.178;20.992;2022-12-18T09:11:39;101340.03;;;-3.01;77.80
56821;BME280;42702;50.178;20.992;2022-12-18T09:14:09;101343.53;;;-2.98;77.47
56821;BME280;42702;50.178;20.992;2022-12-18T09:16:37;101343.55;;;-2.98;77.02
56821;BME280;42702;50.178;20.992;2022-12-18T09:19:05;101349.21;;;-3.00;76.68
56821;BME280;42702;50.178;20.992;2022-12-18T09:21:35;101350.21;;;-3.00;76.90
56821;BME280;42702;50.178;20.992;2022-12-18T09:24:04;101349.92;;;-2.99;76.83
56821;BME280;42702;50.178;20.992;2022-12-18T09:26:35;101349.16;;;-3.00;76.41
56821;BME280;42702;50.178;20.992;2022-12-18T09:29:06;101349.81;;;-3.03;76.21
56821;BME280;42702;50.178;20.992;2022-12-18T09:31:35;101352.80;;;-3.04;75.89
56821;BME280;42702;50.178;20.992;2022-12-18T09:34:04;101352.11;;;-2.98;75.94
56821;BME280;42702;50.178;20.992;2022-12-18T09:36:32;101349.05;;;-2.93;76.41
56821;BME280;42702;50.178;20.992;2022-12-18T09:39:00;101350.61;;;-2.95;76.00
56821;BME280;42702;50.178;20.992;2022-12-18T09:41:48;101350.71;;;-2.98;75.66
56821;BME280;42702;50.178;20.992;2022-12-18T09:44:23;101353.86;;;-2.97;76.20
56821;BME280;42702;50.178;20.992;2022-12-18T09:50:51;101357.13;;;-2.99;75.64
56821;BME280;42702;50.178;20.992;2022-12-18T09:53:05;101366.73;;;-3.07;75.42
56821;BME280;42702;50.178;20.992;2022-12-18T09:55:41;101365.29;;;-3.12;75.37
56821;BME280;42702;50.178;20.992;2022-12-18T10:00:43;101372.83;;;-3.11;75.94
56821;BME280;42702;50.178;20.992;2022-12-18T10:03:14;101373.92;;;-3.11;75.75
56821;BME280;42702;50.178;20.992;2022-12-18T10:06:03;101370.98;;;-3.11;75.29
56821;BME280;42702;50.178;20.992;2022-12-18T10:22:39;101374.11;;;-3.14;75.39
56821;BME280;42702;50.178;20.992;2022-12-18T10:25:21;101373.60;;;-3.12;75.87
56821;BME280;42702;50.178;20.992;2022-12-18T10:27:57;101374.32;;;-3.10;75.97
56821;BME280;42702;50.178;20.992;2022-12-18T10:30:26;101368.70;;;-3.08;75.51
56821;BME280;42702;50.178;20.992;2022-12-18T10:33:00;101367.17;;;-3.10;75.27
56821;BME280;42702;50.178;20.992;2022-12-18T10:35:28;101370.02;;;-3.12;74.86
56821;BME280;42702;50.178;20.992;2022-12-18T10:40:31;101379.20;;;-3.08;74.45
56821;BME280;42702;50.178;20.992;2022-12-18T10:43:12;101386.15;;;-3.11;74.84
56821;BME280;42702;50.178;20.992;2022-12-18T10:45:41;101381.89;;;-3.11;75.05
56821;BME280;42702;50.178;20.992;2022-12-18T10:48:22;101382.93;;;-3.11;74.77
56821;BME280;42702;50.178;20.992;2022-12-18T10:50:51;101383.52;;;-3.12;74.97
56821;BME280;42702;50.178;20.992;2022-12-18T10:53:41;101380.19;;;-3.11;75.05
56821;BME280;42702;50.178;20.992;2022-12-18T10:56:11;101378.05;;;-3.10;74.99
56821;BME280;42702;50.178;20.992;2022-12-18T10:58:40;101374.94;;;-3.12;74.91
56821;BME280;42702;50.178;20.992;2022-12-18T11:01:13;101382.66;;;-3.14;74.69
56821;BME280;42702;50.178;20.992;2022-12-18T11:04:01;101382.49;;;-3.22;74.24
56821;BME280;42702;50.178;20.992;2022-12-18T11:06:53;101374.47;;;-3.27;74.61
56821;BME280;42702;50.178;20.992;2022-12-18T11:09:24;101370.92;;;-3.20;74.46
56821;BME280;42702;50.178;20.992;2022-12-18T11:11:55;101369.70;;;-3.24;74.17
56821;BME280;42702;50.178;20.992;2022-12-18T11:14:27;101370.96;;;-3.32;74.44
56821;BME280;42702;50.178;20.992;2022-12-18T11:16:58;101367.08;;;-3.34;74.84
56821;BME280;42702;50.178;20.992;2022-12-18T11:19:58;101366.53;;;-3.30;75.33
56821;BME280;42702;50.178;20.992;2022-12-18T11:22:30;101367.61;;;-3.27;75.08
56821;BME280;42702;50.178;20.992;2022-12-18T11:25:00;101366.53;;;-3.26;75.34
56821;BME280;42702;50.178;20.992;2022-12-18T11:27:55;101366.91;;;-3.23;75.51
56821;BME280;42702;50.178;20.992;2022-12-18T11:36:03;101379.25;;;-3.35;72.98
56821;BME280;42702;50.178;20.992;2022-12-18T11:38:38;101381.65;;;-3.39;73.59
56821;BME280;42702;50.178;20.992;2022-12-18T11:41:21;101383.58;;;-3.44;74.07
56821;BME280;42702;50.178;20.992;2022-12-18T11:44:15;101384.52;;;-3.45;74.17
56821;BME280;42702;50.178;20.992;2022-12-18T11:46:53;101385.64;;;-3.46;74.53
56821;BME280;42702;50.178;20.992;2022-12-18T11:49:30;101384.10;;;-3.42;74.93
56821;BME280;42702;50.178;20.992;2022-12-18T11:52:35;101388.41;;;-3.37;75.03
56821;BME280;42702;50.178;20.992;2022-12-18T11:55:49;101391.27;;;-3.34;74.91
56821;BME280;42702;50.178;20.992;2022-12-18T11:58:47;101390.56;;;-3.32;74.69
56821;BME280;42702;50.178;20.992;2022-12-18T12:29:54;101400.63;;;-3.58;73.37
56821;BME280;42702;50.178;20.992;2022-12-18T12:32:33;101408.17;;;-3.64;74.21
56821;BME280;42702;50.178;20.992;2022-12-18T12:38:12;101403.73;;;-3.56;74.78
56821;BME280;42702;50.178;20.992;2022-12-18T12:41:03;101402.95;;;-3.53;74.66
56821;BME280;42702;50.178;20.992;2022-12-18T12:43:41;101406.13;;;-3.49;74.85
56821;BME280;42702;50.178;20.992;2022-12-18T12:46:34;101405.61;;;-3.52;74.64
56821;BME280;42702;50.178;20.992;2022-12-18T12:49:11;101410.48;;;-3.50;74.88
56821;BME280;42702;50.178;20.992;2022-12-18T12:51:45;101410.97;;;-3.49;74.99
56821;BME280;42702;50.178;20.992;2022-12-18T12:54:19;101414.91;;;-3.51;74.07
56821;BME280;42702;50.178;20.992;2022-12-18T12:57:05;101419.14;;;-3.55;74.29
56821;BME280;42702;50.178;20.992;2022-12-18T13:03:08;101431.23;;;-3.53;73.36
56821;BME280;42702;50.178;20.992;2022-12-18T13:08:10;101438.05;;;-3.57;74.01
56821;BME280;42702;50.178;20.992;2022-12-18T13:10:42;101437.99;;;-3.52;74.36
56821;BME280;42702;50.178;20.992;2022-12-18T13:13:12;101441.83;;;-3.49;74.49
56821;BME280;42702;50.178;20.992;2022-12-18T13:16:05;101443.30;;;-3.48;74.25
56821;BME280;42702;50.178;20.992;2022-12-18T13:18:34;101438.11;;;-3.44;74.68
56821;BME280;42702;50.178;20.992;2022-12-18T13:21:17;101443.26;;;-3.40;74.64
56821;BME280;42702;50.178;20.992;2022-12-18T13:23:49;101455.24;;;-3.41;73.60
56821;BME280;42702;50.178;20.992;2022-12-18T13:28:56;101467.95;;;-3.62;73.41
56821;BME280;42702;50.178;20.992;2022-12-18T13:36:57;101482.91;;;-3.74;74.36
56821;BME280;42702;50.178;20.992;2022-12-18T13:39:44;101489.50;;;-3.71;74.53
56821;BME280;42702;50.178;20.992;2022-12-18T13:45:42;101496.92;;;-3.68;74.05
56821;BME280;42702;50.178;20.992;2022-12-18T13:48:17;101501.17;;;-3.66;73.83
56821;BME280;42702;50.178;20.992;2022-12-18T13:50:53;101495.95;;;-3.64;73.83
56821;BME280;42702;50.178;20.992;2022-12-18T13:53:27;101495.91;;;-3.64;74.20
56821;BME280;42702;50.178;20.992;2022-12-18T13:55:57;101501.19;;;-3.62;74.31
56821;BME280;42702;50.178;20.992;2022-12-18T13:58:25;101491.98;;;-3.64;73.93
56821;BME280;42702;50.178;20.992;2022-12-18T14:00:54;101500.04;;;-3.66;74.06
56821;BME280;42702;50.178;20.992;2022-12-18T14:03:24;101506.09;;;-3.65;74.32
56821;BME280;42702;50.178;20.992;2022-12-18T14:06:01;101508.92;;;-3.66;74.43
56821;BME280;42702;50.178;20.992;2022-12-18T14:08:38;101507.85;;;-3.64;74.37
56821;BME280;42702;50.178;20.992;2022-12-18T14:11:19;101505.70;;;-3.65;74.14
56821;BME280;42702;50.178;20.992;2022-12-18T14:13:49;101504.33;;;-3.69;74.04
56821;BME280;42702;50.178;20.992;2022-12-18T14:16:17;101509.05;;;-3.70;74.29
56821;BME280;42702;50.178;20.992;2022-12-18T14:18:57;101505.37;;;-3.67;74.60
56821;BME280;42702;50.178;20.992;2022-12-18T14:21:46;101504.11;;;-3.62;74.55
56821;BME280;42702;50.178;20.992;2022-12-18T14:24:19;101503.69;;;-3.59;74.66
56821;BME280;42702;50.178;20.992;2022-12-18T14:26:49;101504.68;;;-3.57;74.56
56821;BME280;42702;50.178;20.992;2022-12-18T14:32:39;101515.08;;;-3.55;74.65
56821;BME280;42702;50.178;20.992;2022-12-18T14:35:12;101518.70;;;-3.54;74.49
56821;BME280;42702;50.178;20.992;2022-12-18T14:37:40;101523.16;;;-3.58;74.56
56821;BME280;42702;50.178;20.992;2022-12-18T14:40:12;101531.86;;;-3.58;74.60
56821;BME280;42702;50.178;20.992;2022-12-18T14:42:41;101531.21;;;-3.60;74.44
56821;BME280;42702;50.178;20.992;2022-12-18T14:48:15;101526.84;;;-3.63;74.74
56821;BME280;42702;50.178;20.992;2022-12-18T14:51:06;101525.92;;;-3.61;74.93
56821;BME280;42702;50.178;20.992;2022-12-18T14:53:44;101524.08;;;-3.57;74.87
56821;BME280;42702;50.178;20.992;2022-12-18T14:58:58;101526.71;;;-3.45;74.24
56821;BME280;42702;50.178;20.992;2022-12-18T15:01:34;101528.60;;;-3.45;74.61